Time;durP1;ratioP1;P1;durP2;ratioP2;P2;SDS_P1;SDS_P2;PMS_P1;PMS_P2;Temp;Humidity;BMP_temperature;BMP_pressure;BME280_temperature;BME280_humidity;BME280_pressure;Samples;Min_cycle;Max_cycle;Signal;HPM_P1;HPM_P2
2021/10/12 00:00:58;;;;;;;5.83;2.13;;;9.40;99.90;;;;;;5076030;28;20943;-69
2021/10/12 00:03:25;;;;;;;7.93;2.93;;;9.40;99.90;;;;;;5076119;28;20485;-69
2021/10/12 00:05:52;;;;;;;7.03;2.80;;;9.30;99.90;;;;;;5075913;28;20489;-69
2021/10/12 00:08:19;;;;;;;9.67;3.00;;;9.30;99.90;;;;;;5076486;28;20472;-69
2021/10/12 00:10:47;;;;;;;6.37;2.53;;;9.40;99.90;;;;;;5076081;28;20783;-70
2021/10/12 00:13:14;;;;;;;7.40;2.20;;;9.30;99.90;;;;;;5076194;28;20524;-69
2021/10/12 00:15:40;;;;;;;14.50;3.13;;;9.30;99.90;;;;;;5075850;28;20934;-69
2021/10/12 00:18:07;;;;;;;9.23;2.27;;;9.30;99.90;;;;;;5076067;28;20468;-70
2021/10/12 00:20:34;;;;;;;6.07;2.50;;;9.30;99.90;;;;;;5075716;28;20459;-70
2021/10/12 00:23:01;;;;;;;7.80;2.33;;;9.30;99.90;;;;;;5076231;28;20452;-70
2021/10/12 00:25:28;;;;;;;9.93;2.33;;;9.30;99.90;;;;;;5076112;28;20481;-70
2021/10/12 00:27:56;;;;;;;10.97;2.90;;;9.20;99.90;;;;;;5075205;28;20458;-69
2021/10/12 00:30:22;;;;;;;10.23;2.97;;;9.20;99.90;;;;;;5075453;28;20466;-70
2021/10/12 00:32:49;;;;;;;7.63;3.10;;;9.20;99.90;;;;;;5075546;28;20915;-69
2021/10/12 00:35:16;;;;;;;9.27;3.07;;;9.20;99.90;;;;;;5075469;28;20461;-69
2021/10/12 00:37:42;;;;;;;13.93;3.07;;;9.10;99.90;;;;;;5075521;28;20496;-68
2021/10/12 00:40:10;;;;;;;8.77;3.40;;;9.10;99.90;;;;;;5075190;28;20469;-68
2021/10/12 00:42:38;;;;;;;10.80;2.70;;;9.10;99.90;;;;;;5075618;28;20486;-70
2021/10/12 00:45:10;;;;;;;17.97;4.40;;;9.10;99.90;;;;;;5075617;28;20941;-69
2021/10/12 00:47:36;;;;;;;7.60;3.13;;;9.10;99.90;;;;;;5075419;28;20446;-69
2021/10/12 00:50:04;;;;;;;4.93;3.10;;;9.10;99.90;;;;;;5075423;28;20458;-69
2021/10/12 00:52:31;;;;;;;4.33;2.60;;;9.00;99.90;;;;;;5075423;28;20519;-69
2021/10/12 00:54:57;;;;;;;6.70;3.20;;;9.10;99.90;;;;;;5075496;28;20461;-69
2021/10/12 00:57:25;;;;;;;6.57;3.00;;;9.00;99.90;;;;;;5075645;28;20520;-69
2021/10/12 00:59:53;;;;;;;11.77;3.50;;;9.00;99.90;;;;;;5075057;28;20472;-69
2021/10/12 01:02:21;;;;;;;9.20;3.30;;;9.00;99.90;;;;;;5075369;28;20843;-69
2021/10/12 01:04:48;;;;;;;9.80;3.90;;;9.00;99.90;;;;;;5074888;28;20462;-69
2021/10/12 01:07:14;;;;;;;6.63;3.47;;;9.00;99.90;;;;;;5075010;28;20472;-69
2021/10/12 01:09:41;;;;;;;9.83;3.07;;;9.00;99.90;;;;;;5075065;28;20451;-69
2021/10/12 01:12:08;;;;;;;9.47;3.43;;;9.00;99.90;;;;;;5074901;28;20844;-69
2021/10/12 01:14:35;;;;;;;6.70;3.43;;;9.00;99.90;;;;;;5074854;28;20459;-69
2021/10/12 01:17:01;;;;;;;6.73;2.90;;;9.00;99.90;;;;;;5075106;28;20461;-69
2021/10/12 01:19:29;;;;;;;7.00;2.40;;;9.00;99.90;;;;;;5074829;28;20459;-69
2021/10/12 01:21:57;;;;;;;6.43;2.73;;;9.00;99.90;;;;;;5074851;28;20738;-69
2021/10/12 01:24:24;;;;;;;6.90;2.30;;;9.00;99.90;;;;;;5074962;28;20466;-69
2021/10/12 01:26:51;;;;;;;8.53;2.90;;;9.00;99.90;;;;;;5074239;28;20482;-69
2021/10/12 01:29:17;;;;;;;7.47;2.60;;;9.00;99.90;;;;;;5074829;28;20790;-69
2021/10/12 01:31:44;;;;;;;7.63;2.50;;;9.00;99.90;;;;;;5074506;28;20747;-69
2021/10/12 01:34:13;;;;;;;9.87;2.73;;;9.00;99.90;;;;;;5074689;28;20791;-69
2021/10/12 01:36:40;;;;;;;8.93;2.80;;;9.00;99.90;;;;;;5074671;28;20464;-69
2021/10/12 01:39:08;;;;;;;7.80;2.70;;;9.00;99.90;;;;;;5074270;28;20942;-70
2021/10/12 01:41:35;;;;;;;5.97;2.80;;;9.00;99.90;;;;;;5074524;28;20789;-69
2021/10/12 01:44:01;;;;;;;10.13;3.00;;;8.90;99.90;;;;;;5074367;28;20481;-69
2021/10/12 01:46:28;;;;;;;9.00;3.00;;;9.00;99.90;;;;;;5074890;28;20497;-69
2021/10/12 01:48:55;;;;;;;5.37;3.30;;;8.90;99.90;;;;;;5074744;28;20908;-69
2021/10/12 01:51:22;;;;;;;16.47;3.40;;;8.90;99.90;;;;;;5074375;28;20462;-70
2021/10/12 01:53:49;;;;;;;7.87;2.97;;;8.90;99.90;;;;;;5074461;28;20470;-70
2021/10/12 01:56:17;;;;;;;12.10;2.97;;;8.90;99.90;;;;;;5074361;28;20922;-69
2021/10/12 01:58:50;;;;;;;7.77;2.80;;;8.90;99.90;;;;;;5074599;28;20767;-69
2021/10/12 02:01:19;;;;;;;9.23;2.80;;;8.80;99.90;;;;;;5074361;28;20544;-69
2021/10/12 02:03:46;;;;;;;7.30;2.83;;;8.80;99.90;;;;;;5074908;28;20456;-69
2021/10/12 02:06:13;;;;;;;7.30;2.87;;;8.80;99.90;;;;;;5074759;28;20480;-69
2021/10/12 02:08:39;;;;;;;4.07;2.40;;;8.80;99.90;;;;;;5073924;28;20465;-69
2021/10/12 02:11:09;;;;;;;12.07;3.23;;;8.80;99.90;;;;;;5074480;28;20840;-69
2021/10/12 02:13:37;;;;;;;10.80;2.80;;;8.80;99.90;;;;;;5073913;28;20909;-69
2021/10/12 02:16:04;;;;;;;4.37;3.40;;;8.80;99.90;;;;;;5074324;28;20462;-69
2021/10/12 02:18:31;;;;;;;6.87;3.43;;;8.70;99.90;;;;;;5074189;28;20813;-69
2021/10/12 02:20:58;;;;;;;11.40;4.37;;;8.70;99.90;;;;;;5074289;28;20775;-69
2021/10/12 02:23:25;;;;;;;12.73;3.87;;;8.60;99.90;;;;;;5074350;28;20470;-69
2021/10/12 02:25:52;;;;;;;12.87;3.33;;;8.60;99.90;;;;;;5074025;28;20481;-69
2021/10/12 02:28:18;;;;;;;12.50;3.70;;;8.60;99.90;;;;;;5073895;28;20458;-69
2021/10/12 02:30:46;;;;;;;9.83;3.13;;;8.60;99.90;;;;;;5074112;28;20827;-69
2021/10/12 02:33:13;;;;;;;10.07;3.50;;;8.60;99.90;;;;;;5073813;28;20472;-69
2021/10/12 02:35:40;;;;;;;8.77;3.13;;;8.60;99.90;;;;;;5073807;28;20940;-69
2021/10/12 02:38:06;;;;;;;6.03;3.67;;;8.60;99.90;;;;;;5074063;28;20460;-69
2021/10/12 02:40:33;;;;;;;10.67;5.00;;;8.60;99.90;;;;;;5074109;28;20464;-69
2021/10/12 02:43:01;;;;;;;7.00;5.57;;;8.60;99.90;;;;;;5073709;28;20492;-69
2021/10/12 02:45:28;;;;;;;11.70;6.40;;;8.60;99.90;;;;;;5073849;28;20456;-69
2021/10/12 02:47:56;;;;;;;9.50;6.07;;;8.60;99.90;;;;;;5073817;28;20927;-69
2021/10/12 02:50:22;;;;;;;13.60;7.87;;;8.50;99.90;;;;;;5075119;28;20453;-69
2021/10/12 02:52:49;;;;;;;10.80;7.60;;;8.60;99.90;;;;;;5077109;28;20739;-69
2021/10/12 02:55:16;;;;;;;11.20;7.37;;;8.60;99.90;;;;;;5077613;28;20457;-69
2021/10/12 02:57:42;;;;;;;13.00;8.33;;;8.50;99.90;;;;;;5077503;28;20478;-69
2021/10/12 03:00:10;;;;;;;12.43;7.60;;;8.50;99.90;;;;;;5077450;28;20465;-69
2021/10/12 03:02:37;;;;;;;9.00;6.43;;;8.50;99.90;;;;;;5077220;28;20450;-69
2021/10/12 03:05:05;;;;;;;9.57;4.87;;;8.50;99.90;;;;;;5077299;28;20452;-69
2021/10/12 03:07:32;;;;;;;9.00;3.30;;;8.50;99.90;;;;;;5077139;28;20481;-68
2021/10/12 03:09:59;;;;;;;7.57;3.47;;;8.50;99.90;;;;;;5077547;28;20805;-69
2021/10/12 03:12:26;;;;;;;4.07;3.67;;;8.50;99.90;;;;;;5077231;28;20487;-68
2021/10/12 03:14:52;;;;;;;9.10;3.50;;;8.50;99.90;;;;;;5077186;28;20802;-68
2021/10/12 03:17:19;;;;;;;10.60;3.80;;;8.50;99.90;;;;;;5077205;28;20798;-69
2021/10/12 03:19:46;;;;;;;9.53;3.80;;;8.50;99.90;;;;;;5077274;28;20487;-69
2021/10/12 03:22:15;;;;;;;5.67;3.43;;;8.50;99.90;;;;;;5076850;28;20468;-69
2021/10/12 03:24:42;;;;;;;12.03;3.60;;;8.50;99.90;;;;;;5076967;28;20948;-69
2021/10/12 03:27:10;;;;;;;10.80;4.30;;;8.50;99.90;;;;;;5076979;28;20542;-69
2021/10/12 03:29:38;;;;;;;10.33;4.23;;;8.50;99.90;;;;;;5076837;28;20461;-69
2021/10/12 03:32:06;;;;;;;7.60;3.50;;;8.50;99.90;;;;;;5076870;28;20465;-68
2021/10/12 03:34:33;;;;;;;10.47;4.20;;;8.50;99.90;;;;;;5077089;28;20466;-69
2021/10/12 03:37:01;;;;;;;12.50;4.60;;;8.50;99.90;;;;;;5076776;28;20476;-69
2021/10/12 03:39:29;;;;;;;8.33;4.40;;;8.50;99.90;;;;;;5077007;28;20539;-69
2021/10/12 03:41:57;;;;;;;8.37;4.80;;;8.50;99.90;;;;;;5076551;28;20798;-69
2021/10/12 03:44:25;;;;;;;9.80;5.00;;;8.50;99.90;;;;;;5077518;28;20870;-69
2021/10/12 03:46:52;;;;;;;9.60;5.77;;;8.50;99.90;;;;;;5076661;28;20477;-69
2021/10/12 03:49:18;;;;;;;13.33;7.63;;;8.50;99.90;;;;;;5077002;28;20457;-69
2021/10/12 03:51:45;;;;;;;14.93;9.67;;;8.50;99.90;;;;;;5076451;28;20513;-69
2021/10/12 03:54:12;;;;;;;14.17;11.90;;;8.40;99.90;;;;;;5076737;28;20462;-69
2021/10/12 03:56:41;;;;;;;13.00;11.70;;;8.50;99.90;;;;;;5076323;28;20454;-69
2021/10/12 03:59:08;;;;;;;13.40;10.40;;;8.50;99.90;;;;;;5076298;28;20462;-69
2021/10/12 04:01:35;;;;;;;16.23;13.03;;;8.50;99.90;;;;;;5076485;28;20466;-69
2021/10/12 04:04:03;;;;;;;16.80;11.40;;;8.60;99.90;;;;;;5075971;28;20469;-69
2021/10/12 04:06:30;;;;;;;10.57;8.30;;;8.60;99.90;;;;;;5076289;28;20481;-69
2021/10/12 04:08:57;;;;;;;9.00;5.30;;;8.60;99.90;;;;;;5076124;28;20470;-70
2021/10/12 04:11:24;;;;;;;11.70;4.90;;;8.60;99.90;;;;;;5075970;28;20480;-69
2021/10/12 04:13:52;;;;;;;9.77;4.80;;;8.70;99.90;;;;;;5075870;28;20458;-69
2021/10/12 04:16:19;;;;;;;9.70;4.50;;;8.70;99.90;;;;;;5076301;28;20527;-70
2021/10/12 04:18:46;;;;;;;14.57;6.50;;;8.70;99.90;;;;;;5076119;28;20523;-69
2021/10/12 04:21:12;;;;;;;9.50;4.27;;;8.70;99.90;;;;;;5076152;28;20475;-70
2021/10/12 04:23:39;;;;;;;6.23;3.50;;;8.70;99.90;;;;;;5075871;28;20495;-69
2021/10/12 04:26:09;;;;;;;9.20;4.13;;;8.70;99.90;;;;;;5075498;28;20462;-70
2021/10/12 04:28:36;;;;;;;16.00;3.77;;;8.70;99.90;;;;;;5077033;28;20526;-69
2021/10/12 04:31:04;;;;;;;9.40;3.70;;;8.70;99.90;;;;;;5075850;28;20759;-70
2021/10/12 04:33:30;;;;;;;10.70;3.90;;;8.70;99.90;;;;;;5075561;28;20462;-69
2021/10/12 04:35:57;;;;;;;9.13;3.90;;;8.70;99.90;;;;;;5076098;28;20468;-69
2021/10/12 04:38:24;;;;;;;9.60;4.30;;;8.70;99.90;;;;;;5076117;28;20454;-70
2021/10/12 04:40:50;;;;;;;7.87;3.80;;;8.70;99.90;;;;;;5075751;28;20469;-70
2021/10/12 04:43:17;;;;;;;11.40;4.00;;;8.70;99.90;;;;;;5075364;28;20563;-70
2021/10/12 04:45:44;;;;;;;5.77;3.80;;;8.60;99.90;;;;;;5075545;28;20914;-70
2021/10/12 04:48:12;;;;;;;8.67;4.27;;;8.60;99.90;;;;;;5076028;28;20626;-70
2021/10/12 04:50:39;;;;;;;9.20;4.77;;;8.60;99.90;;;;;;5075257;28;20455;-69
2021/10/12 04:53:05;;;;;;;7.10;3.90;;;8.50;99.90;;;;;;5075090;28;20463;-70
2021/10/12 04:55:32;;;;;;;8.13;4.53;;;8.50;99.90;;;;;;5075700;28;20485;-69
2021/10/12 04:57:59;;;;;;;7.20;4.50;;;8.50;99.90;;;;;;5075351;28;20523;-70
2021/10/12 05:00:26;;;;;;;7.83;4.80;;;8.50;99.90;;;;;;5074879;28;20472;-69
2021/10/12 05:02:52;;;;;;;11.30;5.00;;;8.50;99.90;;;;;;5075148;28;20460;-70
2021/10/12 05:05:21;;;;;;;11.87;5.00;;;8.50;99.90;;;;;;5074666;28;20489;-70
2021/10/12 05:07:47;;;;;;;8.50;5.17;;;8.50;99.90;;;;;;5074698;28;20473;-69
2021/10/12 05:10:14;;;;;;;8.67;4.40;;;8.50;99.90;;;;;;5075010;28;20516;-69
2021/10/12 05:12:41;;;;;;;11.43;5.67;;;8.50;99.90;;;;;;5074603;28;20507;-69
2021/10/12 05:15:08;;;;;;;9.77;5.30;;;8.60;99.90;;;;;;5074982;28;20512;-69
2021/10/12 05:17:37;;;;;;;12.33;5.53;;;8.60;99.90;;;;;;5074516;28;20462;-69
2021/10/12 05:20:05;;;;;;;11.03;5.40;;;8.60;99.90;;;;;;5075036;28;20468;-69
2021/10/12 05:22:33;;;;;;;11.33;5.80;;;8.60;99.90;;;;;;5074582;28;20914;-69
2021/10/12 05:25:00;;;;;;;16.13;6.43;;;8.60;99.90;;;;;;5074390;28;20462;-69
2021/10/12 05:27:27;;;;;;;15.40;9.17;;;8.50;99.90;;;;;;5074209;28;20485;-69
2021/10/12 05:29:53;;;;;;;10.07;8.30;;;8.50;99.90;;;;;;5074923;28;20949;-70
2021/10/12 05:32:20;;;;;;;13.37;9.70;;;8.50;99.90;;;;;;5074539;28;20461;-69
2021/10/12 05:34:47;;;;;;;18.50;10.30;;;8.50;99.90;;;;;;5074743;28;20466;-69
2021/10/12 05:37:14;;;;;;;13.70;10.13;;;8.50;99.90;;;;;;5074494;28;20461;-70
2021/10/12 05:39:42;;;;;;;11.10;7.70;;;8.50;99.90;;;;;;5074735;28;20477;-69
2021/10/12 05:42:08;;;;;;;8.33;5.17;;;8.40;99.90;;;;;;5074188;28;20525;-70
2021/10/12 05:44:35;;;;;;;8.70;5.07;;;8.40;99.90;;;;;;5074469;28;20545;-69
2021/10/12 05:47:02;;;;;;;10.93;4.83;;;8.40;99.90;;;;;;5074710;28;20889;-69
2021/10/12 05:49:29;;;;;;;5.00;4.40;;;8.40;99.90;;;;;;5074911;28;20472;-69
2021/10/12 05:51:55;;;;;;;8.80;4.33;;;8.40;99.90;;;;;;5074496;28;20473;-70
2021/10/12 05:54:25;;;;;;;4.70;3.97;;;8.40;99.90;;;;;;5074509;28;20458;-69
2021/10/12 05:56:59;;;;;;;5.10;4.20;;;8.40;99.90;;;;;;5073953;28;20571;-69
2021/10/12 05:59:26;;;;;;;6.00;5.27;;;8.40;99.90;;;;;;5074401;28;20512;-70
2021/10/12 06:01:53;;;;;;;8.43;5.47;;;8.50;99.90;;;;;;5074296;28;20455;-69
2021/10/12 06:04:19;;;;;;;10.73;5.60;;;8.50;99.90;;;;;;5074687;28;20915;-70
2021/10/12 06:06:46;;;;;;;7.27;5.40;;;8.50;99.90;;;;;;5073926;28;20487;-70
2021/10/12 06:09:13;;;;;;;6.90;6.10;;;8.60;99.90;;;;;;5074048;28;20787;-70
2021/10/12 06:11:39;;;;;;;8.80;5.40;;;8.60;99.90;;;;;;5074201;28;20544;-71
2021/10/12 06:14:07;;;;;;;10.70;6.33;;;8.70;99.90;;;;;;5073851;28;20480;-70
2021/10/12 06:16:34;;;;;;;10.13;6.40;;;8.60;99.90;;;;;;5074438;28;20508;-69
2021/10/12 06:19:01;;;;;;;8.93;6.30;;;8.70;99.90;;;;;;5073980;28;20779;-70
2021/10/12 06:21:31;;;;;;;13.07;7.40;;;8.70;99.90;;;;;;5073981;28;20454;-71
2021/10/12 06:23:57;;;;;;;8.13;6.80;;;8.70;99.90;;;;;;5073950;28;20458;-70
2021/10/12 06:26:24;;;;;;;8.37;5.70;;;8.70;99.90;;;;;;5077227;28;20844;-71
2021/10/12 06:28:51;;;;;;;8.07;6.67;;;8.70;99.90;;;;;;5077252;28;20600;-70
2021/10/12 06:31:19;;;;;;;7.20;6.20;;;8.70;99.90;;;;;;5077956;28;20465;-70
2021/10/12 06:33:45;;;;;;;8.67;6.80;;;8.80;99.90;;;;;;5077977;28;20484;-70
2021/10/12 06:36:12;;;;;;;8.83;6.43;;;8.80;99.90;;;;;;5077628;28;20458;-70
2021/10/12 06:38:39;;;;;;;7.47;6.13;;;8.80;99.90;;;;;;5077804;28;20476;-70
2021/10/12 06:41:05;;;;;;;9.03;6.70;;;8.80;99.90;;;;;;5077308;28;20916;-70
2021/10/12 06:43:32;;;;;;;9.23;7.23;;;8.90;99.90;;;;;;5077065;28;20490;-69
2021/10/12 06:45:59;;;;;;;8.20;6.80;;;8.90;99.90;;;;;;5077575;28;20450;-70
2021/10/12 06:48:27;;;;;;;10.77;7.73;;;9.00;99.90;;;;;;5077219;28;20481;-70
2021/10/12 06:50:54;;;;;;;10.27;6.90;;;9.00;99.90;;;;;;5077656;28;20473;-69
2021/10/12 06:53:20;;;;;;;12.13;6.23;;;9.00;99.90;;;;;;5077359;28;20455;-69
2021/10/12 06:55:47;;;;;;;12.07;7.67;;;9.10;99.90;;;;;;5077016;28;20462;-69
2021/10/12 06:58:14;;;;;;;8.43;6.03;;;9.20;99.90;;;;;;5077481;28;20576;-70
2021/10/12 07:00:40;;;;;;;8.67;6.03;;;9.20;99.90;;;;;;5077517;28;20459;-70
2021/10/12 07:03:07;;;;;;;6.20;5.20;;;9.30;99.90;;;;;;5077430;28;20535;-70
2021/10/12 07:05:35;;;;;;;6.73;4.97;;;9.30;99.90;;;;;;5076722;28;20481;-69
2021/10/12 07:08:02;;;;;;;6.03;4.63;;;9.30;99.90;;;;;;5077320;28;20474;-70
2021/10/12 07:10:28;;;;;;;7.80;4.70;;;9.30;99.90;;;;;;5077121;28;20485;-70
2021/10/12 07:12:55;;;;;;;5.23;4.20;;;9.40;99.90;;;;;;5076759;28;20467;-69
2021/10/12 07:15:22;;;;;;;7.00;4.37;;;9.40;99.90;;;;;;5077002;28;20464;-69
2021/10/12 07:17:48;;;;;;;5.90;4.30;;;9.40;99.90;;;;;;5076845;28;20460;-70
2021/10/12 07:20:15;;;;;;;6.50;3.30;;;9.50;99.90;;;;;;5077057;28;20451;-68
2021/10/12 07:22:43;;;;;;;4.70;3.47;;;9.50;99.90;;;;;;5076788;28;20848;-68
2021/10/12 07:25:10;;;;;;;5.63;3.00;;;9.50;99.90;;;;;;5077193;28;20462;-69
2021/10/12 07:27:37;;;;;;;3.23;2.83;;;9.50;99.90;;;;;;5076749;28;20474;-70
2021/10/12 07:30:04;;;;;;;8.07;3.03;;;9.50;99.90;;;;;;5076785;28;20459;-69
2021/10/12 07:32:31;;;;;;;3.77;2.70;;;9.60;99.90;;;;;;5076603;28;20565;-70
2021/10/12 07:34:58;;;;;;;5.83;3.30;;;9.60;99.90;;;;;;5076792;28;20484;-69
2021/10/12 07:37:24;;;;;;;5.50;2.97;;;9.60;99.90;;;;;;5076222;28;20906;-69
2021/10/12 07:39:52;;;;;;;3.30;2.73;;;9.60;99.90;;;;;;5076684;28;20560;-70
2021/10/12 07:42:19;;;;;;;2.50;2.27;;;9.60;99.90;;;;;;5076017;28;20487;-70
2021/10/12 07:44:46;;;;;;;6.63;3.07;;;9.60;99.90;;;;;;5076318;28;20463;-70
2021/10/12 07:47:13;;;;;;;4.13;2.57;;;9.70;99.90;;;;;;5076590;28;20470;-70
2021/10/12 07:49:40;;;;;;;2.97;2.67;;;9.80;99.90;;;;;;5076269;28;20477;-70
2021/10/12 07:52:07;;;;;;;3.93;2.27;;;9.80;99.90;;;;;;5076682;28;20763;-70
2021/10/12 07:54:45;;;;;;;2.77;2.03;;;9.90;99.90;;;;;;5076224;28;20482;-70
2021/10/12 07:57:14;;;;;;;2.93;2.27;;;9.90;99.90;;;;;;5076808;28;20435;-70
2021/10/12 07:59:40;;;;;;;2.20;2.00;;;10.00;99.90;;;;;;5076043;28;20909;-70
2021/10/12 08:02:11;;;;;;;4.43;2.13;;;10.00;99.90;;;;;;5076108;28;20483;-70
2021/10/12 08:04:38;;;;;;;3.87;2.47;;;10.00;99.90;;;;;;5075805;28;20891;-69
2021/10/12 08:07:05;;;;;;;5.33;2.20;;;10.00;99.90;;;;;;5075863;28;20468;-69
2021/10/12 08:09:32;;;;;;;2.40;2.20;;;10.10;99.90;;;;;;5076426;28;20454;-70
2021/10/12 08:11:58;;;;;;;6.23;2.40;;;10.10;99.90;;;;;;5075936;28;20769;-70
2021/10/12 08:14:27;;;;;;;4.00;2.40;;;10.10;99.90;;;;;;5075916;28;20457;-69
2021/10/12 08:16:53;;;;;;;3.97;2.20;;;10.10;99.90;;;;;;5076047;28;20928;-70
2021/10/12 08:19:20;;;;;;;3.83;2.30;;;10.10;99.90;;;;;;5075750;28;20459;-70
2021/10/12 08:21:47;;;;;;;1.73;1.63;;;10.10;99.90;;;;;;5075636;28;20471;-69
2021/10/12 08:24:17;;;;;;;3.53;2.37;;;10.10;99.90;;;;;;5076052;28;20893;-69
2021/10/12 08:26:44;;;;;;;3.80;2.83;;;10.10;99.90;;;;;;5075568;28;20486;-69
2021/10/12 08:29:11;;;;;;;6.40;2.20;;;10.20;99.90;;;;;;5075532;28;20484;-71
2021/10/12 08:31:39;;;;;;;3.40;1.80;;;10.30;99.90;;;;;;5075268;28;20467;-70
2021/10/12 08:34:05;;;;;;;4.17;1.90;;;10.20;99.90;;;;;;5075682;28;20461;-69
2021/10/12 08:36:32;;;;;;;2.17;1.63;;;10.20;99.90;;;;;;5075194;28;20787;-69
2021/10/12 08:38:59;;;;;;;1.90;1.77;;;10.30;99.90;;;;;;5074899;28;20480;-70
2021/10/12 08:41:30;;;;;;;3.80;2.70;;;10.30;99.90;;;;;;5075520;28;20468;-69
2021/10/12 08:43:57;;;;;;;2.07;1.87;;;10.30;99.90;;;;;;5075102;28;20495;-70
2021/10/12 08:46:26;;;;;;;4.83;1.97;;;10.30;99.90;;;;;;5075103;28;20459;-70
2021/10/12 08:48:55;;;;;;;3.53;2.40;;;10.30;99.90;;;;;;5074572;28;20795;-70
2021/10/12 08:51:22;;;;;;;2.93;1.90;;;10.30;99.90;;;;;;5075379;28;20466;-69
2021/10/12 08:53:49;;;;;;;3.80;2.40;;;10.30;99.90;;;;;;5074868;28;20800;-69
2021/10/12 08:56:15;;;;;;;2.63;1.63;;;10.40;99.90;;;;;;5075266;28;20474;-69
2021/10/12 08:58:42;;;;;;;4.13;2.13;;;10.60;99.90;;;;;;5074894;28;20457;-69
2021/10/12 09:01:11;;;;;;;2.87;1.47;;;10.70;99.90;;;;;;5075285;28;20467;-70
2021/10/12 09:03:52;;;;;;;2.47;1.50;;;10.60;99.90;;;;;;5074987;28;20562;-70
2021/10/12 09:06:30;;;;;;;3.30;2.13;;;10.50;99.90;;;;;;5074260;28;20478;-69
2021/10/12 09:08:59;;;;;;;3.93;1.80;;;10.50;99.90;;;;;;5074829;28;20470;-69
2021/10/12 09:11:28;;;;;;;2.33;1.80;;;10.40;99.90;;;;;;5074986;28;20461;-69
2021/10/12 09:14:05;;;;;;;3.30;1.70;;;10.40;99.90;;;;;;5074937;28;20466;-69
2021/10/12 09:16:35;;;;;;;4.93;1.40;;;10.30;99.90;;;;;;5074329;28;20891;-69
2021/10/12 09:19:04;;;;;;;2.40;1.30;;;10.30;99.90;;;;;;5074500;28;20944;-69
2021/10/12 09:21:34;;;;;;;2.83;1.53;;;10.20;99.90;;;;;;5074517;28;20469;-69
2021/10/12 09:24:08;;;;;;;7.10;1.90;;;10.30;99.90;;;;;;5074629;28;20462;-69
2021/10/12 09:26:37;;;;;;;2.10;1.67;;;10.30;99.90;;;;;;5074431;28;20447;-70
2021/10/12 09:29:08;;;;;;;4.13;1.70;;;10.40;99.90;;;;;;5074940;28;20507;-69
2021/10/12 09:31:36;;;;;;;4.23;1.40;;;10.50;99.90;;;;;;5074901;28;20443;-69
2021/10/12 09:34:05;;;;;;;1.97;1.43;;;10.60;99.90;;;;;;5074357;28;21048;-69
2021/10/12 09:36:36;;;;;;;2.13;1.37;;;10.80;99.90;;;;;;5074581;28;20461;-70
2021/10/12 09:39:04;;;;;;;3.60;1.60;;;10.90;99.90;;;;;;5074556;28;20894;-70
2021/10/12 09:41:31;;;;;;;2.23;1.40;;;11.00;99.90;;;;;;5074476;28;20462;-70
2021/10/12 09:44:12;;;;;;;2.73;1.40;;;11.10;99.90;;;;;;5074027;28;20490;-69
2021/10/12 09:46:41;;;;;;;4.50;1.90;;;11.10;99.90;;;;;;5074395;28;20499;-69
2021/10/12 09:49:19;;;;;;;3.57;1.30;;;11.10;99.90;;;;;;5074282;28;20496;-69
2021/10/12 09:52:00;;;;;;;3.10;1.70;;;11.00;99.90;;;;;;5074382;28;20445;-70
2021/10/12 09:54:29;;;;;;;5.93;1.33;;;11.10;99.90;;;;;;5074162;28;20446;-69
2021/10/12 09:56:57;;;;;;;7.03;1.20;;;11.20;99.90;;;;;;5074395;28;20459;-70
2021/10/12 09:59:24;;;;;;;3.83;0.90;;;11.30;99.90;;;;;;5075806;28;20496;-70
2021/10/12 10:01:52;;;;;;;2.83;1.13;;;11.40;99.90;;;;;;5077898;28;20473;-69
2021/10/12 10:04:20;;;;;;;4.07;1.50;;;11.50;99.90;;;;;;5078607;28;20468;-69
2021/10/12 10:06:48;;;;;;;3.63;1.40;;;11.50;99.90;;;;;;5077983;28;20875;-69
2021/10/12 10:09:20;;;;;;;2.60;1.27;;;11.60;99.90;;;;;;5078253;28;20970;-70
2021/10/12 10:11:47;;;;;;;5.63;2.63;;;11.60;99.90;;;;;;5078360;28;20523;-69
2021/10/12 10:14:15;;;;;;;3.60;1.30;;;11.60;99.90;;;;;;5078031;28;20454;-69
2021/10/12 10:16:45;;;;;;;3.70;1.20;;;11.50;99.90;;;;;;5078264;28;20525;-69
2021/10/12 10:19:15;;;;;;;2.30;1.60;;;11.60;99.90;;;;;;5078027;28;20482;-69
2021/10/12 10:21:46;;;;;;;1.37;1.00;;;11.50;99.90;;;;;;5077944;28;20470;-70
2021/10/12 10:24:19;;;;;;;1.90;1.10;;;11.50;99.90;;;;;;5078058;28;20470;-70
2021/10/12 10:26:48;;;;;;;3.80;1.10;;;11.50;99.90;;;;;;5078248;28;20442;-70
2021/10/12 10:29:24;;;;;;;1.60;0.97;;;11.60;99.90;;;;;;5078082;28;20483;-69
2021/10/12 10:31:53;;;;;;;7.13;1.47;;;11.70;99.90;;;;;;5077597;28;20458;-70
2021/10/12 10:34:29;;;;;;;2.60;1.17;;;11.90;99.90;;;;;;5077801;28;20519;-69
2021/10/12 10:37:25;;;;;;;3.70;1.60;;;12.10;99.90;;;;;;5077935;28;20462;-69
2021/10/12 10:39:56;;;;;;;2.70;1.20;;;12.20;99.90;;;;;;5079216;28;20804;-69
2021/10/12 10:42:52;;;;;;;7.10;1.60;;;12.20;99.90;;;;;;5077598;28;20482;-69
2021/10/12 10:45:19;;;;;;;3.10;1.00;;;12.30;99.90;;;;;;5077878;28;20438;-74
2021/10/12 10:47:50;;;;;;;1.97;1.00;;;12.10;99.90;;;;;;5077159;28;20828;-69
2021/10/12 10:50:18;;;;;;;2.80;1.20;;;12.10;99.90;;;;;;5077738;28;20495;-69
2021/10/12 10:52:47;;;;;;;2.57;1.13;;;12.10;99.90;;;;;;5078218;28;20458;-70
2021/10/12 10:55:20;;;;;;;1.57;0.90;;;12.10;99.90;;;;;;5077178;28;20459;-69
2021/10/12 10:58:17;;;;;;;2.63;0.80;;;12.20;99.90;;;;;;5077583;28;20455;-68
2021/10/12 11:00:47;;;;;;;2.63;1.07;;;12.30;99.90;;;;;;5077304;28;20450;-70
2021/10/12 11:03:35;;;;;;;2.33;1.27;;;12.50;99.90;;;;;;5077456;28;20456;-69
2021/10/12 11:06:02;;;;;;;2.30;0.77;;;12.70;99.90;;;;;;5076898;28;20458;-70
2021/10/12 11:08:31;;;;;;;2.03;0.90;;;12.80;99.90;;;;;;5077629;28;20489;-70
2021/10/12 11:11:00;;;;;;;1.10;0.80;;;13.00;99.90;;;;;;5076267;28;20918;-70
2021/10/12 11:13:34;;;;;;;3.43;0.80;;;13.10;99.90;;;;;;5077238;28;20487;-68
2021/10/12 11:16:03;;;;;;;1.77;0.90;;;13.40;99.90;;;;;;5076992;28;20445;-68
2021/10/12 11:18:30;;;;;;;2.60;1.00;;;13.50;99.90;;;;;;5076777;28;20926;-68
2021/10/12 11:20:58;;;;;;;3.33;0.97;;;13.60;99.90;;;;;;5076300;28;20458;-70
2021/10/12 11:23:28;;;;;;;1.97;0.80;;;13.60;99.90;;;;;;5076571;28;20536;-70
2021/10/12 11:25:57;;;;;;;2.70;0.97;;;13.40;99.90;;;;;;5076753;28;20465;-71
2021/10/12 11:28:24;;;;;;;2.63;0.90;;;13.20;99.90;;;;;;5076650;28;20483;-70
2021/10/12 11:30:53;;;;;;;1.90;0.90;;;13.00;99.90;;;;;;5077578;28;20520;-69
2021/10/12 11:33:30;;;;;;;3.20;1.20;;;12.80;99.90;;;;;;5077335;28;20464;-69
2021/10/12 11:36:00;;;;;;;1.50;1.00;;;12.70;99.90;;;;;;5076661;28;20461;-69
2021/10/12 11:38:31;;;;;;;1.47;1.00;;;12.70;99.90;;;;;;5076361;28;20504;-69
2021/10/12 11:40:58;;;;;;;1.80;0.90;;;12.90;99.90;;;;;;5076531;28;20465;-70
2021/10/12 11:43:37;;;;;;;4.03;1.20;;;13.00;99.90;;;;;;5075728;28;20489;-69
2021/10/12 11:46:07;;;;;;;4.03;0.80;;;13.30;99.90;;;;;;5076228;28;20527;-70
2021/10/12 11:48:35;;;;;;;1.83;0.97;;;13.90;99.90;;;;;;5076366;28;20937;-69
2021/10/12 11:51:14;;;;;;;7.03;1.53;;;14.70;99.90;;;;;;5076195;28;20918;-69
2021/10/12 11:53:42;;;;;;;1.53;0.90;;;15.70;99.90;;;;;;5077089;28;20462;-69
2021/10/12 11:56:10;;;;;;;1.83;0.83;;;16.60;99.90;;;;;;5077052;28;20459;-70
2021/10/12 11:58:37;;;;;;;2.37;1.00;;;17.50;99.90;;;;;;5077434;28;20488;-70
2021/10/12 12:01:06;;;;;;;2.07;1.00;;;17.80;99.90;;;;;;5077748;28;20458;-69
2021/10/12 12:03:35;;;;;;;2.27;1.03;;;17.70;99.90;;;;;;5077671;28;20466;-69
2021/10/12 12:06:02;;;;;;;1.30;0.80;;;17.30;99.90;;;;;;5077426;28;20466;-70
2021/10/12 12:08:32;;;;;;;3.67;1.00;;;16.70;99.90;;;;;;5077362;28;20470;-70
2021/10/12 12:10:59;;;;;;;2.30;1.00;;;16.20;99.90;;;;;;5076027;28;20477;-69
2021/10/12 12:13:27;;;;;;;3.10;1.17;;;15.90;99.90;;;;;;5075631;28;20544;-69
2021/10/12 12:15:55;;;;;;;2.40;1.13;;;16.50;99.90;;;;;;5075501;28;20485;-69
2021/10/12 12:18:27;;;;;;;1.93;0.70;;;17.30;99.90;;;;;;5075018;28;20458;-70
2021/10/12 12:20:55;;;;;;;1.40;0.70;;;18.10;99.90;;;;;;5075630;28;20478;-69
2021/10/12 12:23:33;;;;;;;1.30;0.90;;;18.80;99.90;;;;;;5074457;28;20447;-69
2021/10/12 12:26:00;;;;;;;1.90;0.70;;;19.70;99.90;;;;;;5075316;28;20457;-69
2021/10/12 12:28:27;;;;;;;2.80;0.90;;;20.70;99.90;;;;;;5075340;28;20451;-70
2021/10/12 12:30:53;;;;;;;1.60;1.27;;;21.40;96.40;;;;;;5075578;28;20458;-69
2021/10/12 12:33:25;;;;;;;1.90;0.83;;;21.80;92.80;;;;;;5075288;28;20464;-69
2021/10/12 12:35:54;;;;;;;1.10;0.70;;;22.20;91.80;;;;;;5076190;28;20443;-70
2021/10/12 12:38:25;;;;;;;1.70;0.83;;;22.30;89.10;;;;;;5075909;28;20516;-70
2021/10/12 12:40:52;;;;;;;1.83;1.00;;;22.30;85.20;;;;;;5076661;28;20473;-70
2021/10/12 12:43:21;;;;;;;2.07;0.80;;;22.40;84.40;;;;;;5075333;28;20482;-70
2021/10/12 12:46:12;;;;;;;2.37;1.00;;;22.70;81.30;;;;;;5075462;28;20454;-70
2021/10/12 12:48:42;;;;;;;1.83;0.80;;;23.30;79.00;;;;;;5075035;28;20897;-70
2021/10/12 12:51:10;;;;;;;3.77;0.80;;;23.30;73.70;;;;;;5074808;28;20903;-70
2021/10/12 12:53:41;;;;;;;1.90;0.97;;;22.80;75.20;;;;;;5075469;28;20465;-70
2021/10/12 12:56:10;;;;;;;1.73;0.87;;;22.60;75.90;;;;;;5074997;28;20489;-70